createdAt,value
2022-10-18T00:02:07.888Z,4.65
2022-10-18T00:04:34.849Z,4.93
2022-10-18T00:07:01.386Z,4.70
2022-10-18T00:09:29.433Z,4.80
2022-10-18T00:11:56.516Z,5.30
2022-10-18T00:14:23.110Z,4.78
2022-10-18T00:16:49.669Z,5.40
2022-10-18T00:19:16.186Z,4.37
2022-10-18T00:24:14.710Z,5.10
2022-10-18T00:26:42.642Z,5.15
2022-10-18T00:29:14.234Z,5.22
2022-10-18T00:31:41.220Z,4.47
2022-10-18T00:34:11.311Z,5.10
2022-10-18T00:36:37.893Z,4.97
2022-10-18T00:39:07.142Z,4.53
2022-10-18T00:41:36.270Z,5.03
2022-10-18T00:44:06.004Z,5.10
2022-10-18T00:46:34.597Z,5.10
2022-10-18T00:49:04.290Z,4.90
2022-10-18T00:51:36.147Z,4.95
2022-10-18T00:54:02.963Z,5.43
2022-10-18T00:56:29.967Z,5.13
2022-10-18T00:58:57.315Z,4.70
2022-10-18T01:01:28.282Z,5.10
2022-10-18T01:03:56.542Z,5.07
2022-10-18T01:06:23.667Z,5.60
2022-10-18T01:09:01.144Z,5.13
2022-10-18T01:11:47.722Z,4.60
2022-10-18T01:14:24.635Z,5.25
2022-10-18T01:16:59.033Z,4.63
2022-10-18T01:19:53.143Z,5.43
2022-10-18T01:22:24.219Z,5.00
2022-10-18T01:25:06.730Z,5.18
2022-10-18T01:27:45.185Z,5.15
2022-10-18T01:30:43.262Z,4.97
2022-10-18T01:33:22.614Z,5.63
2022-10-18T01:35:53.661Z,5.30
2022-10-18T01:38:22.197Z,5.70
2022-10-18T01:40:51.064Z,5.60
2022-10-18T01:43:19.799Z,5.97
2022-10-18T01:45:48.643Z,4.82
2022-10-18T01:48:16.677Z,5.63
2022-10-18T01:50:43.204Z,4.70
2022-10-18T01:53:30.975Z,5.05
2022-10-18T01:56:24.036Z,5.57
2022-10-18T01:59:02.623Z,5.43
2022-10-18T02:01:38.756Z,5.33
2022-10-18T02:04:10.692Z,5.57
2022-10-18T02:06:44.716Z,6.00
2022-10-18T02:09:18.037Z,5.47
2022-10-18T02:11:48.037Z,5.80
2022-10-18T02:14:18.627Z,5.70
2022-10-18T02:16:50.943Z,5.30
2022-10-18T02:21:58.843Z,5.80
2022-10-18T02:24:31.708Z,6.57
2022-10-18T02:26:58.308Z,5.53
2022-10-18T02:29:24.942Z,5.47
2022-10-18T02:31:56.779Z,6.72
2022-10-18T02:34:27.611Z,7.07
2022-10-18T02:36:57.623Z,7.93
2022-10-18T02:39:29.651Z,8.70
2022-10-18T02:41:57.495Z,8.15
2022-10-18T02:44:24.303Z,8.20
2022-10-18T02:46:51.189Z,7.70
2022-10-18T02:49:19.152Z,6.95
2022-10-18T02:51:45.633Z,5.73
2022-10-18T02:54:12.281Z,5.50
2022-10-18T02:56:38.778Z,4.68
2022-10-18T02:59:05.396Z,4.53
2022-10-18T03:01:32.047Z,4.47
2022-10-18T03:03:58.595Z,4.00
2022-10-18T03:06:26.667Z,4.13
2022-10-18T03:08:53.243Z,4.90
2022-10-18T03:11:20.321Z,4.95
2022-10-18T03:13:46.828Z,4.70
2022-10-18T03:16:13.356Z,3.53
2022-10-18T03:18:39.872Z,3.13
2022-10-18T03:21:07.108Z,2.72
2022-10-18T03:23:35.263Z,2.40
2022-10-18T03:26:02.021Z,2.42
2022-10-18T03:28:28.583Z,2.40
2022-10-18T03:31:00.023Z,2.60
2022-10-18T03:33:26.565Z,2.55
2022-10-18T03:35:53.119Z,2.50
2022-10-18T03:38:19.617Z,2.65
2022-10-18T03:40:47.486Z,2.57
2022-10-18T03:43:14.178Z,3.03
2022-10-18T03:45:40.701Z,3.05
2022-10-18T03:48:07.277Z,3.00
2022-10-18T03:50:33.795Z,3.10
2022-10-18T03:53:00.410Z,3.10
2022-10-18T03:55:27.136Z,2.80
2022-10-18T03:57:54.987Z,3.20
2022-10-18T04:00:21.588Z,2.70
2022-10-18T04:02:51.954Z,3.65
2022-10-18T04:05:21.677Z,2.50
2022-10-18T04:07:48.176Z,4.13
2022-10-18T04:10:14.826Z,3.40
2022-10-18T04:12:41.420Z,3.35
2022-10-18T04:15:10.608Z,3.20
2022-10-18T04:17:37.226Z,3.13
2022-10-18T04:20:04.359Z,3.58
2022-10-18T04:22:30.952Z,3.80
2022-10-18T04:24:57.462Z,4.43
2022-10-18T04:27:24.273Z,3.50
2022-10-18T04:29:50.809Z,5.50
2022-10-18T04:32:18.757Z,6.05
2022-10-18T04:34:45.306Z,6.22
2022-10-18T04:37:11.924Z,6.32
2022-10-18T04:39:38.452Z,6.32
2022-10-18T04:42:05.042Z,5.70
2022-10-18T04:44:31.567Z,5.07
2022-10-18T04:46:58.062Z,4.75
2022-10-18T04:49:25.894Z,4.68
2022-10-18T04:51:52.450Z,4.20
2022-10-18T04:54:18.948Z,3.57
2022-10-18T04:56:45.612Z,3.78
2022-10-18T04:59:12.114Z,3.97
2022-10-18T05:01:38.831Z,3.80
2022-10-18T05:04:05.510Z,4.13
2022-10-18T05:06:33.503Z,4.00
2022-10-18T05:09:00.080Z,3.70
2022-10-18T05:11:26.587Z,3.97
2022-10-18T05:13:53.159Z,4.43
2022-10-18T05:16:19.912Z,4.35
2022-10-18T05:18:46.605Z,4.50
2022-10-18T05:21:13.338Z,5.65
2022-10-18T05:23:41.163Z,4.97
2022-10-18T05:26:08.930Z,4.20
2022-10-18T05:28:40.526Z,4.18
2022-10-18T05:31:09.309Z,5.07
2022-10-18T05:33:36.298Z,4.60
2022-10-18T05:36:03.150Z,5.10
2022-10-18T05:38:29.769Z,4.85
2022-10-18T05:40:58.026Z,5.22
2022-10-18T05:43:27.543Z,5.23
2022-10-18T05:45:54.109Z,4.78
2022-10-18T05:48:20.643Z,5.30
2022-10-18T05:50:47.199Z,4.82
2022-10-18T05:53:35.302Z,4.85
2022-10-18T05:56:02.410Z,4.60
2022-10-18T05:58:29.151Z,5.05
2022-10-18T06:00:58.768Z,4.65
2022-10-18T06:03:25.280Z,5.55
2022-10-18T06:05:51.780Z,5.80
2022-10-18T06:08:18.306Z,4.57
2022-10-18T06:10:44.982Z,4.20
2022-10-18T06:13:12.850Z,3.90
2022-10-18T06:15:39.358Z,3.92
2022-10-18T06:18:05.861Z,4.68
2022-10-18T06:20:32.363Z,4.80
2022-10-18T06:22:58.857Z,4.55
2022-10-18T06:25:25.472Z,5.03
2022-10-18T06:27:52.024Z,4.70
2022-10-18T06:30:19.865Z,3.65
2022-10-18T06:32:46.485Z,3.97
2022-10-18T06:35:13.144Z,4.00
2022-10-18T06:37:39.778Z,3.88
2022-10-18T06:40:07.622Z,4.40
2022-10-18T06:42:34.554Z,4.00
2022-10-18T06:45:01.246Z,4.73
2022-10-18T06:47:29.135Z,4.75
2022-10-18T06:49:55.685Z,5.00
2022-10-18T06:52:22.227Z,6.05
2022-10-18T06:54:48.720Z,5.82
2022-10-18T06:57:15.336Z,4.57
2022-10-18T06:59:41.829Z,5.30
2022-10-18T07:02:09.441Z,4.82
2022-10-18T07:04:37.443Z,5.30
2022-10-18T07:07:03.960Z,5.30
2022-10-18T07:09:30.796Z,5.03
2022-10-18T07:11:57.287Z,4.50
2022-10-18T07:14:28.763Z,4.53
2022-10-18T07:16:58.018Z,5.00
2022-10-18T07:19:24.616Z,5.03
2022-10-18T07:21:52.478Z,5.17
2022-10-18T07:24:18.975Z,4.88
2022-10-18T07:26:45.521Z,4.75
2022-10-18T07:29:12.430Z,4.78
2022-10-18T07:31:39.276Z,4.20
2022-10-18T07:34:06.821Z,4.47
2022-10-18T07:36:33.887Z,4.55
2022-10-18T07:39:02.137Z,4.15
2022-10-18T07:41:28.654Z,5.45
2022-10-18T07:43:55.192Z,6.82
2022-10-18T07:46:22.496Z,6.00
2022-10-18T07:48:49.430Z,6.60
2022-10-18T07:51:16.943Z,6.28
2022-10-18T07:53:43.534Z,6.05
2022-10-18T07:56:13.722Z,6.13
2022-10-18T07:58:40.215Z,6.23
2022-10-18T08:01:08.467Z,6.20
2022-10-18T08:03:35.717Z,6.55
2022-10-18T08:06:03.551Z,6.10
2022-10-18T08:08:30.618Z,6.60
2022-10-18T08:11:02.500Z,6.33
2022-10-18T08:13:30.762Z,6.40
2022-10-18T08:16:00.001Z,5.82
2022-10-18T08:18:26.616Z,6.13
2022-10-18T08:20:53.132Z,5.05
2022-10-18T08:23:19.672Z,5.33
2022-10-18T08:25:46.154Z,4.72
2022-10-18T08:28:12.660Z,4.10
2022-10-18T08:30:40.539Z,4.90
2022-10-18T08:33:07.082Z,5.03
2022-10-18T08:35:33.631Z,5.17
2022-10-18T08:38:00.175Z,5.10
2022-10-18T08:40:27.764Z,5.50
2022-10-18T08:43:02.975Z,5.00
2022-10-18T08:45:42.094Z,4.75
2022-10-18T08:48:19.848Z,4.90
2022-10-18T08:50:46.871Z,4.68
2022-10-18T08:53:17.470Z,5.00
2022-10-18T08:55:48.800Z,4.50
2022-10-18T08:58:19.429Z,4.50
2022-10-18T09:00:54.506Z,4.20
2022-10-18T09:03:36.256Z,4.47
2022-10-18T09:06:17.561Z,4.65
2022-10-18T09:09:01.386Z,4.75
2022-10-18T09:11:44.303Z,4.60
2022-10-18T09:14:33.607Z,4.73
2022-10-18T09:17:10.378Z,4.65
2022-10-18T09:19:54.981Z,4.25
2022-10-18T09:22:29.068Z,4.30
2022-10-18T09:25:04.422Z,4.10
2022-10-18T09:27:41.109Z,4.00
2022-10-18T09:30:18.765Z,3.83
2022-10-18T09:32:51.289Z,4.40
2022-10-18T09:35:24.165Z,5.30
2022-10-18T09:37:54.133Z,5.22
2022-10-18T09:40:26.852Z,5.50
2022-10-18T09:42:58.262Z,6.20
2022-10-18T09:45:29.115Z,6.20
2022-10-18T09:48:05.529Z,6.38
2022-10-18T09:50:37.971Z,6.18
2022-10-18T09:53:12.867Z,5.80
2022-10-18T09:55:47.260Z,5.22
2022-10-18T09:58:14.771Z,5.90
2022-10-18T10:00:46.048Z,5.70
2022-10-18T10:03:13.085Z,5.85
2022-10-18T10:05:41.331Z,6.00
2022-10-18T10:08:07.929Z,5.45
2022-10-18T10:10:38.216Z,5.70
2022-10-18T10:13:07.212Z,5.07
2022-10-18T10:15:39.301Z,4.97
2022-10-18T10:18:20.304Z,5.20
2022-10-18T10:20:51.330Z,5.32
2022-10-18T10:23:21.351Z,5.90
2022-10-18T10:25:52.016Z,5.22
2022-10-18T10:28:21.731Z,5.22
2022-10-18T10:30:48.305Z,5.27
2022-10-18T10:33:33.769Z,5.47
2022-10-18T10:36:03.191Z,5.03
2022-10-18T10:38:31.191Z,4.90
2022-10-18T10:40:58.214Z,4.82
2022-10-18T10:43:42.801Z,5.00
2022-10-18T10:46:12.026Z,4.47
2022-10-18T10:48:47.916Z,5.00
2022-10-18T10:51:18.042Z,4.60
2022-10-18T10:53:50.335Z,4.65
2022-10-18T10:56:28.309Z,4.80
2022-10-18T10:58:58.268Z,3.75
2022-10-18T11:01:28.978Z,4.10
2022-10-18T11:03:58.138Z,3.72
2022-10-18T11:06:48.697Z,4.18
2022-10-18T11:09:33.798Z,4.43
2022-10-18T11:12:12.116Z,4.00
2022-10-18T11:14:44.835Z,5.22
2022-10-18T11:17:18.701Z,4.20
2022-10-18T11:19:59.087Z,4.45
2022-10-18T11:22:32.378Z,4.27
2022-10-18T11:24:59.147Z,4.40
2022-10-18T11:27:30.521Z,4.50
2022-10-18T11:30:14.275Z,4.38
2022-10-18T11:32:48.381Z,4.65
2022-10-18T11:35:32.267Z,3.83
2022-10-18T11:38:12.234Z,4.00
2022-10-18T11:40:54.367Z,3.00
2022-10-18T11:43:30.162Z,2.60
2022-10-18T11:46:09.912Z,3.40
2022-10-18T11:48:57.286Z,2.83
2022-10-18T11:51:38.596Z,3.50
2022-10-18T11:57:25.307Z,3.08
2022-10-18T12:00:03.098Z,3.15
2022-10-18T12:03:14.546Z,2.87
2022-10-18T12:05:44.776Z,2.95
2022-10-18T12:08:14.685Z,2.95
2022-10-18T12:11:04.023Z,3.38
2022-10-18T12:13:38.910Z,3.20
2022-10-18T12:16:08.222Z,2.70
2022-10-18T12:18:36.752Z,2.90
2022-10-18T12:21:06.248Z,2.90
2022-10-18T12:23:42.202Z,2.58
2022-10-18T12:26:11.438Z,2.60
2022-10-18T12:28:53.809Z,2.70
2022-10-18T12:31:24.640Z,2.30
2022-10-18T12:33:56.673Z,2.20
2022-10-18T12:36:41.736Z,2.30
2022-10-18T12:39:15.656Z,2.50
2022-10-18T12:41:47.318Z,2.50
2022-10-18T12:44:20.157Z,2.60
2022-10-18T12:46:49.780Z,2.83
2022-10-18T12:49:21.770Z,2.65
2022-10-18T12:51:54.066Z,2.50
2022-10-18T12:54:25.585Z,2.83
2022-10-18T12:56:53.511Z,3.10
2022-10-18T12:59:49.960Z,3.30
2022-10-18T13:02:37.700Z,3.15
2022-10-18T13:05:48.882Z,3.10
2022-10-18T13:08:37.637Z,2.97
2022-10-18T13:11:28.223Z,2.90
2022-10-18T13:14:20.986Z,3.05
2022-10-18T13:16:53.222Z,2.58
2022-10-18T13:19:25.896Z,2.60
2022-10-18T13:22:04.358Z,2.80
2022-10-18T13:24:35.487Z,2.80
2022-10-18T13:27:36.588Z,3.00
2022-10-18T13:30:27.328Z,3.17
2022-10-18T13:33:02.247Z,2.90
2022-10-18T13:35:52.529Z,3.20
2022-10-18T13:38:59.727Z,3.00
2022-10-18T13:41:31.318Z,3.15
2022-10-18T13:44:23.933Z,3.60
2022-10-18T13:47:32.066Z,9.07
2022-10-18T13:53:41.927Z,3.65
2022-10-18T13:56:33.161Z,3.33
2022-10-18T13:59:42.476Z,2.88
2022-10-18T14:02:50.324Z,3.30
2022-10-18T14:05:32.127Z,3.10
2022-10-18T14:08:05.774Z,3.20
2022-10-18T14:11:00.925Z,3.55
2022-10-18T14:13:36.433Z,3.45
2022-10-18T14:16:09.118Z,3.63
2022-10-18T14:18:42.411Z,3.13
2022-10-18T14:21:21.970Z,3.17
2022-10-18T14:23:50.599Z,2.95
2022-10-18T14:26:18.956Z,5.35
2022-10-18T14:29:01.509Z,4.70
2022-10-18T14:31:28.541Z,4.13
2022-10-18T14:33:58.909Z,3.38
2022-10-18T14:36:29.251Z,3.58
2022-10-18T14:38:57.407Z,3.95
2022-10-18T14:41:25.685Z,4.05
2022-10-18T14:43:53.922Z,3.57
2022-10-18T14:46:22.885Z,3.45
2022-10-18T14:48:54.803Z,3.92
2022-10-18T14:51:22.965Z,3.60
2022-10-18T14:53:50.288Z,3.72
2022-10-18T14:56:23.993Z,3.70
2022-10-18T14:58:51.199Z,3.65
2022-10-18T15:01:20.091Z,3.80
2022-10-18T15:03:47.863Z,3.80
2022-10-18T15:06:17.948Z,4.00
2022-10-18T15:08:47.517Z,4.50
2022-10-18T15:11:15.767Z,4.40
2022-10-18T15:13:48.175Z,4.30
2022-10-18T15:16:16.929Z,4.30
2022-10-18T15:18:44.009Z,4.72
2022-10-18T15:21:21.676Z,4.20
2022-10-18T15:23:50.346Z,5.32
2022-10-18T15:26:23.044Z,4.82
2022-10-18T15:28:51.635Z,4.80
2022-10-18T15:31:24.839Z,5.38
2022-10-18T15:33:52.310Z,5.50
2022-10-18T15:36:26.780Z,5.60
2022-10-18T15:39:04.021Z,6.07
2022-10-18T15:41:37.162Z,5.63
2022-10-18T15:44:11.667Z,5.70
2022-10-18T15:46:42.600Z,5.93
2022-10-18T15:49:48.095Z,5.78
2022-10-18T15:52:37.730Z,5.70
2022-10-18T15:55:37.835Z,6.18
2022-10-18T15:58:11.134Z,6.10
2022-10-18T16:00:37.707Z,5.87
2022-10-18T16:03:04.335Z,6.30
2022-10-18T16:05:30.861Z,6.93
2022-10-18T16:07:57.484Z,6.38
2022-10-18T16:10:23.976Z,6.70
2022-10-18T16:12:50.577Z,6.23
2022-10-18T16:15:18.953Z,6.43
2022-10-18T16:17:45.698Z,6.35
2022-10-18T16:20:18.702Z,6.50
2022-10-18T16:22:45.348Z,7.07
2022-10-18T16:25:11.850Z,7.97
2022-10-18T16:27:38.597Z,7.13
2022-10-18T16:30:12.217Z,7.80
2022-10-18T16:32:40.211Z,7.57
2022-10-18T16:35:07.257Z,7.28
2022-10-18T16:37:33.915Z,7.60
2022-10-18T16:40:00.421Z,7.70
2022-10-18T16:42:27.038Z,8.02
2022-10-18T16:44:53.782Z,7.90
2022-10-18T16:47:20.452Z,7.95
2022-10-18T16:49:48.334Z,8.37
2022-10-18T16:52:14.863Z,8.38
2022-10-18T16:54:41.359Z,8.15
2022-10-18T16:57:09.147Z,8.18
2022-10-18T16:59:35.642Z,8.85
2022-10-18T17:02:02.248Z,8.87
2022-10-18T17:04:28.760Z,8.68
2022-10-18T17:06:57.675Z,9.15
2022-10-18T17:09:24.219Z,8.80
2022-10-18T17:11:50.760Z,9.63
2022-10-18T17:14:17.260Z,9.00
2022-10-18T17:16:46.626Z,8.57
2022-10-18T17:19:16.755Z,9.43
2022-10-18T17:21:43.380Z,9.13
2022-10-18T17:24:11.284Z,9.40
2022-10-18T17:26:38.041Z,9.30
2022-10-18T17:29:06.500Z,8.85
2022-10-18T17:31:33.574Z,10.75
2022-10-18T17:34:00.366Z,10.50
2022-10-18T17:36:26.894Z,11.00
2022-10-18T17:38:53.826Z,10.30
2022-10-18T17:41:22.115Z,9.98
2022-10-18T17:43:48.927Z,10.15
2022-10-18T17:46:15.998Z,10.52
2022-10-18T17:48:42.639Z,10.15
2022-10-18T17:51:10.550Z,9.80
2022-10-18T17:53:37.114Z,10.43
2022-10-18T17:56:04.768Z,12.52
2022-10-18T17:58:32.677Z,10.52
2022-10-18T18:01:08.908Z,10.68
2022-10-18T18:03:35.628Z,10.30
2022-10-18T18:06:12.171Z,10.32
2022-10-18T18:08:38.713Z,11.50
2022-10-18T18:11:05.501Z,10.27
2022-10-18T18:13:33.453Z,11.13
2022-10-18T18:16:10.524Z,11.47
2022-10-18T18:18:37.313Z,10.80
2022-10-18T18:21:03.872Z,11.20
2022-10-18T18:23:30.455Z,11.43
2022-10-18T18:25:57.678Z,12.07
2022-10-18T18:28:24.264Z,12.17
2022-10-18T18:30:52.155Z,11.98
2022-10-18T18:33:18.741Z,11.68
2022-10-18T18:35:54.410Z,10.80
2022-10-18T18:38:20.947Z,12.18
2022-10-18T18:40:47.557Z,11.93
2022-10-18T18:43:28.671Z,12.38
2022-10-18T18:45:56.551Z,13.10
2022-10-18T18:48:23.104Z,11.80
2022-10-18T18:50:49.663Z,11.38
2022-10-18T18:53:16.338Z,11.73
2022-10-18T18:55:42.909Z,12.00
2022-10-18T18:58:09.709Z,11.20
2022-10-18T19:00:41.702Z,10.80
2022-10-18T19:03:12.515Z,11.55
2022-10-18T19:05:39.171Z,11.30
2022-10-18T19:08:06.272Z,11.02
2022-10-18T19:10:32.916Z,11.23
2022-10-18T19:12:59.540Z,11.02
2022-10-18T19:15:26.238Z,11.43
2022-10-18T19:17:52.807Z,10.97
2022-10-18T19:20:20.915Z,10.90
2022-10-18T19:22:47.443Z,11.88
2022-10-18T19:25:14.272Z,10.90
2022-10-18T19:27:40.783Z,10.95
2022-10-18T19:30:10.682Z,10.27
2022-10-18T19:32:37.341Z,11.65
2022-10-18T19:35:04.310Z,11.98
2022-10-18T19:37:32.521Z,10.30
2022-10-18T19:39:59.324Z,11.55
2022-10-18T19:42:27.540Z,11.47
2022-10-18T19:44:56.977Z,10.65
2022-10-18T19:47:23.520Z,10.43
2022-10-18T19:49:50.044Z,9.18
2022-10-18T19:52:16.579Z,11.38
2022-10-18T19:54:44.596Z,11.13
2022-10-18T19:57:11.109Z,10.40
2022-10-18T19:59:37.849Z,10.23
2022-10-18T20:02:04.402Z,11.30
2022-10-18T20:04:31.267Z,11.25
2022-10-18T20:06:57.911Z,10.60
2022-10-18T20:09:24.419Z,9.90
2022-10-18T20:11:52.315Z,10.13
2022-10-18T20:14:18.805Z,9.85
2022-10-18T20:16:45.501Z,10.07
2022-10-18T20:19:12.017Z,9.07
2022-10-18T20:21:38.683Z,8.82
2022-10-18T20:24:06.205Z,9.20
2022-10-18T20:26:33.305Z,10.25
2022-10-18T20:29:01.308Z,9.32
2022-10-18T20:31:29.378Z,8.83
2022-10-18T20:33:57.399Z,9.00
2022-10-18T20:36:24.986Z,9.40
2022-10-18T20:38:51.758Z,9.23
2022-10-18T20:41:21.495Z,9.73
2022-10-18T20:43:51.165Z,9.00
2022-10-18T20:46:19.113Z,8.93
2022-10-18T20:48:45.725Z,8.30
2022-10-18T20:51:12.741Z,8.80
2022-10-18T20:53:40.662Z,9.80
2022-10-18T20:56:09.243Z,9.70
2022-10-18T20:58:36.529Z,9.38
2022-10-18T21:01:07.745Z,9.00
2022-10-18T21:03:37.728Z,8.95
2022-10-18T21:06:11.973Z,9.10
2022-10-18T21:08:39.303Z,8.40
2022-10-18T21:11:06.113Z,9.13
2022-10-18T21:13:32.800Z,9.45
2022-10-18T21:16:00.422Z,9.18
2022-10-18T21:18:28.124Z,8.32
2022-10-18T21:21:05.976Z,8.23
2022-10-18T21:23:33.430Z,8.65
2022-10-18T21:25:59.956Z,8.45
2022-10-18T21:28:26.540Z,9.63
2022-10-18T21:30:53.100Z,8.93
2022-10-18T21:33:19.673Z,9.60
2022-10-18T21:35:46.196Z,9.50
2022-10-18T21:38:14.051Z,8.70
2022-10-18T21:40:40.596Z,8.65
2022-10-18T21:43:07.138Z,8.52
2022-10-18T21:45:33.744Z,7.80
2022-10-18T21:48:00.315Z,8.50
2022-10-18T21:50:26.879Z,7.72
2022-10-18T21:52:53.379Z,8.05
2022-10-18T21:55:21.294Z,8.60
2022-10-18T21:57:47.823Z,8.77
2022-10-18T22:00:16.066Z,8.45
2022-10-18T22:02:42.576Z,8.25
2022-10-18T22:05:11.338Z,7.97
2022-10-18T22:07:38.779Z,8.00
2022-10-18T22:10:06.124Z,8.03
2022-10-18T22:12:33.996Z,7.18
2022-10-18T22:15:00.559Z,7.95
2022-10-18T22:17:27.099Z,8.25
2022-10-18T22:19:53.600Z,7.30
2022-10-18T22:22:20.162Z,6.97
2022-10-18T22:24:48.067Z,7.32
2022-10-18T22:27:14.708Z,7.13
2022-10-18T22:29:42.618Z,7.40
2022-10-18T22:32:09.248Z,8.00
2022-10-18T22:34:35.772Z,7.70
2022-10-18T22:37:02.323Z,7.53
2022-10-18T22:39:28.932Z,8.45
2022-10-18T22:41:55.480Z,6.75
2022-10-18T22:44:22.055Z,7.30
2022-10-18T22:46:49.956Z,6.70
2022-10-18T22:49:16.492Z,7.78
2022-10-18T22:51:43.055Z,7.32
2022-10-18T22:54:10.103Z,7.75
2022-10-18T22:56:36.646Z,7.25
2022-10-18T22:59:03.451Z,6.17
2022-10-18T23:01:30.081Z,7.00
2022-10-18T23:04:00.576Z,6.60
2022-10-18T23:06:29.230Z,7.35
2022-10-18T23:08:59.475Z,8.20
2022-10-18T23:11:27.130Z,7.83
2022-10-18T23:13:54.466Z,7.60
2022-10-18T23:16:21.418Z,7.22
2022-10-18T23:18:49.722Z,6.80
2022-10-18T23:21:18.444Z,6.68
2022-10-18T23:23:45.047Z,6.03
2022-10-18T23:26:14.008Z,6.65
2022-10-18T23:28:42.710Z,6.53
2022-10-18T23:31:11.860Z,6.07
2022-10-18T23:33:39.337Z,6.10
2022-10-18T23:36:07.726Z,5.43
2022-10-18T23:38:37.379Z,5.38
2022-10-18T23:41:04.142Z,5.95
2022-10-18T23:43:30.687Z,5.78
2022-10-18T23:45:57.271Z,6.35
2022-10-18T23:48:24.227Z,5.40
2022-10-18T23:50:50.961Z,4.78
2022-10-18T23:53:17.891Z,5.20
2022-10-18T23:55:52.957Z,5.70
2022-10-18T23:58:19.508Z,6.25
